createdAt,value
2023-05-04T00:02:29.469Z,100628.41
2023-05-04T00:05:00.087Z,100623.03
2023-05-04T00:07:30.494Z,100620.41
2023-05-04T00:10:04.908Z,100622.09
2023-05-04T00:12:35.788Z,100619.47
2023-05-04T00:15:06.996Z,100617.69
2023-05-04T00:17:38.121Z,100618.53
2023-05-04T00:20:09.160Z,100603.69
2023-05-04T00:22:40.096Z,100612.44
2023-05-04T00:25:10.903Z,100609.69
2023-05-04T00:27:42.453Z,100602.78
2023-05-04T00:30:13.197Z,100594.88
2023-05-04T00:32:43.959Z,100594.88
2023-05-04T00:35:14.657Z,100586.06
2023-05-04T00:37:45.285Z,100586.88
2023-05-04T00:40:15.799Z,100584.25
2023-05-04T00:42:47.094Z,100594.66
2023-05-04T00:45:17.636Z,100591.19
2023-05-04T00:47:48.606Z,100580.69
2023-05-04T00:50:18.997Z,100585.81
2023-05-04T00:52:52.731Z,100584.97
2023-05-04T00:55:24.964Z,100570.91
2023-05-04T00:57:55.805Z,100569.13
2023-05-04T01:00:26.200Z,100572.66
2023-05-04T01:02:56.605Z,100566.50
2023-05-04T01:05:33.295Z,100569.00
2023-05-04T01:08:12.988Z,100566.38
2023-05-04T01:11:01.552Z,100566.38
2023-05-04T01:13:36.824Z,100554.06
2023-05-04T01:16:08.470Z,100553.22
2023-05-04T01:18:38.945Z,100552.28
2023-05-04T01:21:10.619Z,100554.81
2023-05-04T01:23:41.192Z,100552.19
2023-05-04T01:26:26.471Z,100547.75
2023-05-04T01:29:24.308Z,100553.00
2023-05-04T01:31:55.818Z,100553.84
2023-05-04T01:34:26.233Z,100552.06
2023-05-04T01:36:57.571Z,100550.13
2023-05-04T01:39:27.833Z,100550.13
2023-05-04T01:41:59.177Z,100551.94
2023-05-04T01:44:29.675Z,100563.28
2023-05-04T01:47:00.203Z,100554.44
2023-05-04T01:49:30.779Z,100549.19
2023-05-04T01:52:01.767Z,100550.03
2023-05-04T01:54:32.413Z,100543.00
2023-05-04T01:57:03.769Z,100540.25
2023-05-04T01:59:34.312Z,100533.31
2023-05-04T02:02:05.394Z,100521.84
2023-05-04T02:04:35.969Z,100517.44
2023-05-04T02:07:07.140Z,100512.19
2023-05-04T02:09:38.285Z,100499.03
2023-05-04T02:12:08.748Z,100495.44
2023-05-04T02:14:39.713Z,100494.53
2023-05-04T02:17:10.736Z,100481.38
2023-05-04T02:19:41.180Z,100482.22
2023-05-04T02:22:11.490Z,100475.16
2023-05-04T02:24:45.915Z,100468.94
2023-05-04T02:27:16.350Z,100461.06
2023-05-04T02:29:47.954Z,100452.22
2023-05-04T02:32:19.444Z,100446.97
2023-05-04T02:34:49.782Z,100435.63
2023-05-04T02:37:21.079Z,100433.75
2023-05-04T02:39:51.676Z,100429.31
2023-05-04T02:42:22.773Z,100427.53
2023-05-04T02:44:52.971Z,100421.31
2023-05-04T02:47:23.396Z,100408.16
2023-05-04T02:49:53.936Z,100413.41
2023-05-04T02:52:25.254Z,100406.38
2023-05-04T02:54:55.703Z,100397.53
2023-05-04T02:57:26.140Z,100393.09
2023-05-04T02:59:56.895Z,100379.97
2023-05-04T03:02:27.332Z,100379.91
2023-05-04T03:04:57.798Z,100366.75
2023-05-04T03:07:29.922Z,100361.38
2023-05-04T03:10:00.477Z,100362.19
2023-05-04T03:12:30.912Z,100347.41
2023-05-04T03:15:01.612Z,100340.34
2023-05-04T03:17:32.269Z,100333.28
2023-05-04T03:20:03.595Z,100332.34
2023-05-04T03:22:35.936Z,100322.66
2023-05-04T03:25:06.919Z,100326.84
2023-05-04T03:27:38.481Z,100318.13
2023-05-04T03:30:09.832Z,100299.59
2023-05-04T03:32:42.434Z,100289.09
2023-05-04T03:35:19.031Z,100290.75
2023-05-04T03:37:54.228Z,100280.25
2023-05-04T03:40:25.757Z,100281.06
2023-05-04T03:42:57.323Z,100276.69
2023-05-04T03:45:30.139Z,100270.47
2023-05-04T03:48:01.231Z,100271.28
2023-05-04T03:50:33.292Z,100271.97
2023-05-04T03:53:03.704Z,100262.44
2023-05-04T03:55:34.955Z,100257.91
2023-05-04T03:58:05.356Z,100242.97
2023-05-04T04:00:35.882Z,100239.50
2023-05-04T04:03:13.938Z,100239.38
2023-05-04T04:05:44.520Z,100229.69
2023-05-04T04:08:15.790Z,100227.91
2023-05-04T04:10:46.142Z,100212.00
2023-05-04T04:13:17.245Z,100207.59
2023-05-04T04:15:48.088Z,100197.91
2023-05-04T04:18:18.594Z,100190.84
2023-05-04T04:20:49.062Z,100183.81
2023-05-04T04:23:23.286Z,100185.47
2023-05-04T04:25:55.334Z,100185.47
2023-05-04T04:28:26.236Z,100179.25
2023-05-04T04:30:57.551Z,100174.72
2023-05-04T04:33:28.295Z,100164.19
2023-05-04T04:35:58.783Z,100158.09
2023-05-04T04:38:29.243Z,100160.59
2023-05-04T04:40:59.619Z,100146.47
2023-05-04T04:43:30.237Z,100140.41
2023-05-04T04:46:01.374Z,100131.53
2023-05-04T04:48:31.775Z,100121.84
2023-05-04T04:51:03.093Z,100120.06
2023-05-04T04:53:33.714Z,100121.75
2023-05-04T04:56:03.932Z,100112.06
2023-05-04T04:58:35.111Z,100100.59
2023-05-04T05:01:09.669Z,100098.78
2023-05-04T05:03:40.072Z,100087.28
2023-05-04T05:06:10.542Z,100083.69
2023-05-04T05:08:41.592Z,100080.13
2023-05-04T05:11:13.044Z,100068.66
2023-05-04T05:13:43.402Z,100068.66
2023-05-04T05:16:13.814Z,100065.03
2023-05-04T05:18:44.567Z,100066.72
2023-05-04T05:21:16.065Z,100057.88
2023-05-04T05:23:46.469Z,100056.91
2023-05-04T05:26:17.714Z,100060.22
2023-05-04T05:28:48.210Z,100048.88
2023-05-04T05:31:18.486Z,100050.53
2023-05-04T05:33:49.050Z,100042.53
2023-05-04T05:36:20.313Z,100049.59
2023-05-04T05:38:50.872Z,100038.94
2023-05-04T05:41:21.364Z,100034.38
2023-05-04T05:43:51.945Z,100037.00
2023-05-04T05:46:24.266Z,100033.53
2023-05-04T05:48:54.678Z,100036.88
2023-05-04T05:51:25.281Z,100028.88
2023-05-04T05:53:55.725Z,100023.59
2023-05-04T05:56:26.405Z,100028.88
2023-05-04T05:58:57.316Z,100024.28
2023-05-04T06:01:28.157Z,100022.50
2023-05-04T06:03:59.883Z,100008.50
2023-05-04T06:06:31.311Z,100012.84
2023-05-04T06:09:01.944Z,100010.06
2023-05-04T06:11:33.469Z,100000.38
2023-05-04T06:14:04.139Z,100002.03
2023-05-04T06:16:35.462Z,99994.13
2023-05-04T06:19:06.274Z,99993.16
2023-05-04T06:21:36.727Z,99985.28
2023-05-04T06:24:07.573Z,99987.91
2023-05-04T06:26:38.009Z,99985.16
2023-05-04T06:29:08.465Z,99984.19
2023-05-04T06:31:39.318Z,99979.75
2023-05-04T06:34:10.531Z,99978.78
2023-05-04T06:36:40.978Z,99976.16
2023-05-04T06:39:11.734Z,99973.53
2023-05-04T06:41:42.364Z,99974.34
2023-05-04T06:44:13.302Z,99965.63
2023-05-04T06:46:43.720Z,99968.16
2023-05-04T06:49:14.062Z,99961.09
2023-05-04T06:51:44.464Z,99961.91
2023-05-04T06:54:14.985Z,99956.66
2023-05-04T06:56:45.413Z,99949.47
2023-05-04T06:59:18.325Z,99953.88
2023-05-04T07:01:52.143Z,99952.09
2023-05-04T07:04:24.767Z,99945.03
2023-05-04T07:06:55.226Z,99947.66
2023-05-04T07:09:25.654Z,99947.53
2023-05-04T07:11:56.047Z,99949.34
2023-05-04T07:14:26.479Z,99948.38
2023-05-04T07:16:56.938Z,99944.75
2023-05-04T07:19:27.359Z,99941.31
2023-05-04T07:21:58.830Z,99932.44
2023-05-04T07:24:32.322Z,99932.44
2023-05-04T07:27:02.711Z,99930.63
2023-05-04T07:29:33.711Z,99920.13
2023-05-04T07:32:04.483Z,99919.84
2023-05-04T07:34:44.935Z,99917.22
2023-05-04T07:37:19.774Z,99912.94
2023-05-04T07:39:50.139Z,99911.97
2023-05-04T07:42:21.368Z,99913.63
2023-05-04T07:44:51.802Z,99912.78
2023-05-04T07:47:23.080Z,99907.53
2023-05-04T07:49:55.045Z,99910.84
2023-05-04T07:52:25.704Z,99913.47
2023-05-04T07:54:56.454Z,99897.69
2023-05-04T07:57:26.961Z,99895.88
2023-05-04T07:59:58.103Z,99895.88
2023-05-04T08:02:28.547Z,99895.78
2023-05-04T08:04:58.959Z,99891.47
2023-05-04T08:07:29.379Z,99893.97
2023-05-04T08:10:00.056Z,99893.97
2023-05-04T08:12:30.467Z,99900.06
2023-05-04T08:15:01.049Z,99889.53
2023-05-04T08:17:32.435Z,99896.44
2023-05-04T08:20:03.451Z,99895.63
2023-05-04T08:22:34.136Z,99892.03
2023-05-04T08:25:05.044Z,99892.84
2023-05-04T08:27:35.510Z,99890.22
2023-05-04T08:30:06.753Z,99885.78
2023-05-04T08:32:37.361Z,99893.69
2023-05-04T08:35:08.096Z,99894.53
2023-05-04T08:37:38.874Z,99890.09
2023-05-04T08:40:10.601Z,99885.66
2023-05-04T08:42:41.944Z,99887.31
2023-05-04T08:45:12.822Z,99889.13
2023-05-04T08:47:44.970Z,99887.31
2023-05-04T08:50:15.709Z,99890.78
2023-05-04T08:52:50.702Z,99885.53
2023-05-04T08:55:21.492Z,99881.91
2023-05-04T08:57:52.658Z,99877.63
2023-05-04T09:00:24.592Z,99882.75
2023-05-04T09:02:56.619Z,99878.34
2023-05-04T09:05:28.200Z,99878.34
2023-05-04T09:07:59.506Z,99874.84
2023-05-04T09:10:30.018Z,99873.06
2023-05-04T09:13:00.430Z,99870.44
2023-05-04T09:15:33.033Z,99867.81
2023-05-04T09:18:08.658Z,99865.19
2023-05-04T09:20:49.735Z,99868.63
2023-05-04T09:23:20.720Z,99872.13
2023-05-04T09:25:54.917Z,99872.13
2023-05-04T09:28:45.367Z,99873.78
2023-05-04T09:31:16.652Z,99881.69
2023-05-04T09:33:47.078Z,99878.22
2023-05-04T09:36:22.519Z,99879.88
2023-05-04T09:38:52.962Z,99879.03
2023-05-04T09:41:34.998Z,99885.97
2023-05-04T09:44:06.219Z,99888.59
2023-05-04T09:46:37.537Z,99885.97
2023-05-04T09:49:07.980Z,99891.22
2023-05-04T09:51:39.140Z,99892.06
2023-05-04T09:54:09.734Z,99891.94
2023-05-04T09:56:54.492Z,99885.00
2023-05-04T09:59:28.947Z,99886.69
2023-05-04T10:02:04.834Z,99887.50
2023-05-04T10:04:45.648Z,99886.69
2023-05-04T10:07:16.148Z,99882.25
2023-05-04T10:09:48.857Z,99880.44
2023-05-04T10:12:20.009Z,99877.81
2023-05-04T10:14:50.481Z,99879.63
2023-05-04T10:17:48.034Z,99880.44
2023-05-04T10:20:56.390Z,99878.63
2023-05-04T10:23:39.049Z,99875.19
2023-05-04T10:26:44.181Z,99871.56
2023-05-04T10:29:26.560Z,99874.19
2023-05-04T10:31:58.293Z,99877.66
2023-05-04T10:34:33.498Z,99877.81
2023-05-04T10:37:05.735Z,99886.38
2023-05-04T10:39:37.506Z,99883.75
2023-05-04T10:42:09.976Z,99878.50
2023-05-04T10:45:00.451Z,99886.38
2023-05-04T10:47:33.897Z,99881.13
2023-05-04T10:50:17.471Z,99880.28
2023-05-04T10:52:50.012Z,99879.31
2023-05-04T10:55:21.431Z,99882.78
2023-05-04T10:57:58.464Z,99883.75
2023-05-04T11:00:39.917Z,99874.06
2023-05-04T11:03:10.997Z,99872.25
2023-05-04T11:05:47.944Z,99874.88
2023-05-04T11:08:23.304Z,99873.94
2023-05-04T11:11:04.513Z,99870.47
2023-05-04T11:13:48.926Z,99890.56
2023-05-04T11:16:27.334Z,99882.66
2023-05-04T11:19:08.562Z,99877.50
2023-05-04T11:21:39.429Z,99878.38
2023-05-04T11:24:10.504Z,99881.84
2023-05-04T11:26:51.177Z,99875.75
2023-05-04T11:29:21.878Z,99879.19
2023-05-04T11:31:58.276Z,99879.19
2023-05-04T11:34:29.299Z,99884.47
2023-05-04T11:37:00.032Z,99881.84
2023-05-04T11:39:33.751Z,99893.19
2023-05-04T11:42:10.396Z,99892.22
2023-05-04T11:44:42.283Z,99890.56
2023-05-04T11:47:13.590Z,99893.19
2023-05-04T11:49:45.396Z,99892.34
2023-05-04T11:52:16.111Z,99887.09
2023-05-04T11:54:58.708Z,99894.00
2023-05-04T11:57:29.109Z,99898.28
2023-05-04T11:59:59.472Z,99902.72
2023-05-04T12:02:30.014Z,99895.66
2023-05-04T12:05:00.501Z,99901.75
2023-05-04T12:07:31.111Z,99907.03
2023-05-04T12:10:01.558Z,99904.53
2023-05-04T12:12:37.990Z,99908.81
2023-05-04T12:15:09.203Z,99911.44
2023-05-04T12:17:44.076Z,99904.53
2023-05-04T12:20:29.753Z,99908.81
2023-05-04T12:23:00.811Z,99914.91
2023-05-04T12:25:31.404Z,99914.09
2023-05-04T12:28:02.076Z,99910.47
2023-05-04T12:30:33.417Z,99910.47
2023-05-04T12:33:03.972Z,99914.91
2023-05-04T12:35:34.454Z,99914.78
2023-05-04T12:38:04.835Z,99916.72
2023-05-04T12:40:35.464Z,99919.19
2023-05-04T12:43:05.688Z,99917.44
2023-05-04T12:45:36.183Z,99909.53
2023-05-04T12:48:06.752Z,99903.41
2023-05-04T12:50:37.308Z,99904.28
2023-05-04T12:53:08.623Z,99903.56
2023-05-04T12:55:39.451Z,99898.16
2023-05-04T12:58:10.731Z,99893.75
2023-05-04T13:00:42.576Z,99892.88
2023-05-04T13:03:14.749Z,99894.56
2023-05-04T13:05:45.281Z,99896.38
2023-05-04T13:08:15.657Z,99905.09
2023-05-04T13:10:47.771Z,99895.53
2023-05-04T13:13:19.534Z,99896.38
2023-05-04T13:15:52.636Z,99893.75
2023-05-04T13:18:28.400Z,99887.63
2023-05-04T13:20:59.286Z,99885.00
2023-05-04T13:23:30.567Z,99890.97
2023-05-04T13:26:00.828Z,99886.69
2023-05-04T13:28:31.584Z,99880.59
2023-05-04T13:31:02.048Z,99885.84
2023-05-04T13:33:36.797Z,99873.53
2023-05-04T13:36:10.628Z,99874.47
2023-05-04T13:38:41.076Z,99875.31
2023-05-04T13:41:11.564Z,99865.75
2023-05-04T13:43:42.056Z,99872.69
2023-05-04T13:46:12.714Z,99867.44
2023-05-04T13:48:43.121Z,99863.00
2023-05-04T13:51:13.687Z,99857.72
2023-05-04T13:53:45.214Z,99841.94
2023-05-04T13:56:15.712Z,99851.50
2023-05-04T13:58:46.394Z,99852.47
2023-05-04T14:01:17.539Z,99848.03
2023-05-04T14:03:48.162Z,99834.03
2023-05-04T14:06:18.966Z,99833.06
2023-05-04T14:08:49.323Z,99831.41
2023-05-04T14:11:19.741Z,99827.94
2023-05-04T14:13:50.597Z,99830.59
2023-05-04T14:16:21.321Z,99841.94
2023-05-04T14:18:52.521Z,99827.09
2023-05-04T14:21:22.899Z,99828.91
2023-05-04T14:23:53.195Z,99831.53
2023-05-04T14:26:23.610Z,99821.84
2023-05-04T14:28:53.828Z,99818.38
2023-05-04T14:31:24.331Z,99821.84
2023-05-04T14:33:56.639Z,99816.56
2023-05-04T14:36:27.326Z,99814.78
2023-05-04T14:38:59.782Z,99806.91
2023-05-04T14:41:34.972Z,99806.91
2023-05-04T14:44:07.112Z,99810.34
2023-05-04T14:46:37.767Z,99800.78
2023-05-04T14:49:09.183Z,99811.19
2023-05-04T14:51:40.725Z,99805.22
2023-05-04T14:54:11.382Z,99799.00
2023-05-04T14:56:42.346Z,99801.63
2023-05-04T14:59:13.131Z,99808.56
2023-05-04T15:01:43.514Z,99797.31
2023-05-04T15:04:15.141Z,99799.00
2023-05-04T15:06:45.808Z,99791.94
2023-05-04T15:09:16.210Z,99790.25
2023-05-04T15:11:46.597Z,99774.47
2023-05-04T15:14:17.885Z,99762.16
2023-05-04T15:16:48.133Z,99770.19
2023-05-04T15:19:18.334Z,99778.06
2023-05-04T15:21:48.724Z,99768.25
2023-05-04T15:24:19.150Z,99761.19
2023-05-04T15:26:49.585Z,99769.06
2023-05-04T15:29:19.964Z,99763.00
2023-05-04T15:31:50.657Z,99765.47
2023-05-04T15:34:21.210Z,99751.63
2023-05-04T15:36:51.607Z,99755.09
2023-05-04T15:39:21.873Z,99748.16
2023-05-04T15:41:52.251Z,99742.75
2023-05-04T15:44:22.709Z,99741.13
2023-05-04T15:46:53.201Z,99740.25
2023-05-04T15:49:23.701Z,99730.59
2023-05-04T15:51:55.393Z,99734.16
2023-05-04T15:54:25.909Z,99735.00
2023-05-04T15:56:56.707Z,99727.09
2023-05-04T15:59:27.004Z,99713.94
2023-05-04T16:01:57.388Z,99712.16
2023-05-04T16:04:27.810Z,99699.94
2023-05-04T16:06:58.546Z,99698.16
2023-05-04T16:09:29.628Z,99705.09
2023-05-04T16:12:00.338Z,99694.69
2023-05-04T16:14:31.584Z,99692.88
2023-05-04T16:17:05.461Z,99673.50
2023-05-04T16:19:35.893Z,99667.44
2023-05-04T16:22:06.399Z,99671.84
2023-05-04T16:24:37.607Z,99665.75
2023-05-04T16:27:09.349Z,99654.28
2023-05-04T16:29:39.729Z,99652.59
2023-05-04T16:32:10.148Z,99646.38
2023-05-04T16:34:40.636Z,99646.38
2023-05-04T16:37:11.360Z,99636.69
2023-05-04T16:39:41.953Z,99627.09
2023-05-04T16:42:12.424Z,99629.72
2023-05-04T16:44:42.796Z,99634.03
2023-05-04T16:47:13.156Z,99624.34
2023-05-04T16:49:43.559Z,99622.69
2023-05-04T16:52:14.707Z,99599.97
2023-05-04T16:54:45.098Z,99597.31
2023-05-04T16:57:15.465Z,99589.44
2023-05-04T16:59:45.761Z,99586.81
2023-05-04T17:02:16.259Z,99595.53
2023-05-04T17:04:46.740Z,99591.13
2023-05-04T17:07:17.088Z,99579.72
2023-05-04T17:09:47.495Z,99588.47
2023-05-04T17:12:18.059Z,99588.47
2023-05-04T17:14:48.979Z,99584.16
2023-05-04T17:17:19.484Z,99573.66
2023-05-04T17:19:49.904Z,99567.44
2023-05-04T17:22:21.195Z,99568.38
2023-05-04T17:24:51.686Z,99559.53
2023-05-04T17:27:22.112Z,99565.75
2023-05-04T17:29:53.160Z,99556.06
2023-05-04T17:32:23.637Z,99551.66
2023-05-04T17:34:54.313Z,99540.41
2023-05-04T17:37:24.916Z,99542.06
2023-05-04T17:39:55.271Z,99536.81
2023-05-04T17:42:25.698Z,99528.09
2023-05-04T17:44:56.730Z,99529.91
2023-05-04T17:47:27.188Z,99529.06
2023-05-04T17:49:57.608Z,99532.53
2023-05-04T17:52:28.022Z,99525.63
2023-05-04T17:54:58.692Z,99514.09
2023-05-04T17:57:28.904Z,99515.91
2023-05-04T17:59:59.272Z,99519.38
2023-05-04T18:02:32.236Z,99514.25
2023-05-04T18:05:02.623Z,99515.25
2023-05-04T18:07:32.987Z,99518.69
2023-05-04T18:10:05.027Z,99507.34
2023-05-04T18:12:37.618Z,99511.75
2023-05-04T18:15:10.506Z,99507.34
2023-05-04T18:17:41.089Z,99512.63
2023-05-04T18:20:14.196Z,99506.50
2023-05-04T18:22:44.731Z,99508.19
2023-05-04T18:25:16.834Z,99507.34
2023-05-04T18:27:47.251Z,99508.31
2023-05-04T18:30:17.875Z,99503.88
2023-05-04T18:32:48.232Z,99499.59
2023-05-04T18:35:19.022Z,99494.31
2023-05-04T18:37:49.828Z,99489.88
2023-05-04T18:40:20.247Z,99489.06
2023-05-04T18:42:50.695Z,99491.69
2023-05-04T18:45:21.799Z,99482.00
2023-05-04T18:47:52.321Z,99483.78
2023-05-04T18:50:22.946Z,99490.03
2023-05-04T18:52:55.568Z,99487.41
2023-05-04T18:55:26.033Z,99489.06
2023-05-04T18:57:56.440Z,99483.97
2023-05-04T19:00:26.994Z,99481.31
2023-05-04T19:02:59.604Z,99476.88
2023-05-04T19:05:30.066Z,99488.41
2023-05-04T19:08:00.466Z,99478.69
2023-05-04T19:10:30.775Z,99477.88
2023-05-04T19:13:02.759Z,99487.41
2023-05-04T19:15:36.202Z,99479.69
2023-05-04T19:18:06.855Z,99469.16
2023-05-04T19:20:40.563Z,99475.25
2023-05-04T19:23:14.261Z,99473.59
2023-05-04T19:25:44.809Z,99469.97
2023-05-04T19:28:15.217Z,99467.50
2023-05-04T19:30:45.599Z,99461.38
2023-05-04T19:33:16.035Z,99466.66
2023-05-04T19:35:46.738Z,99456.13
2023-05-04T19:38:17.902Z,99456.13
2023-05-04T19:40:48.260Z,99446.44
2023-05-04T19:43:18.897Z,99448.22
2023-05-04T19:45:49.573Z,99443.94
2023-05-04T19:48:22.956Z,99439.66
2023-05-04T19:50:53.791Z,99442.31
2023-05-04T19:53:24.162Z,99427.34
2023-05-04T19:55:54.558Z,99420.44
2023-05-04T19:58:27.850Z,99416.13
2023-05-04T20:00:58.366Z,99403.81
2023-05-04T20:03:28.867Z,99405.59
2023-05-04T20:05:59.394Z,99397.72
2023-05-04T20:08:30.515Z,99390.75
2023-05-04T20:11:00.852Z,99390.75
2023-05-04T20:13:31.913Z,99394.25
2023-05-04T20:16:03.332Z,99382.88
2023-05-04T20:18:34.012Z,99396.03
2023-05-04T20:21:05.119Z,99394.38
2023-05-04T20:23:35.595Z,99390.94
2023-05-04T20:26:06.336Z,99385.66
2023-05-04T20:28:36.893Z,99389.94
2023-05-04T20:31:09.122Z,99391.91
2023-05-04T20:33:39.654Z,99389.13
2023-05-04T20:36:13.094Z,99377.78
2023-05-04T20:38:43.420Z,99385.66
2023-05-04T20:41:13.955Z,99373.50
2023-05-04T20:43:44.770Z,99374.31
2023-05-04T20:46:15.041Z,99377.78
2023-05-04T20:48:45.576Z,99370.88
2023-05-04T20:51:16.048Z,99370.03
2023-05-04T20:53:46.826Z,99376.13
2023-05-04T20:56:17.062Z,99368.22
2023-05-04T20:58:47.408Z,99367.53
2023-05-04T21:01:18.002Z,99371.16
2023-05-04T21:03:48.443Z,99371.16
2023-05-04T21:06:19.182Z,99366.88
2023-05-04T21:08:49.518Z,99369.50
2023-05-04T21:11:19.845Z,99361.63
2023-05-04T21:13:50.858Z,99363.41
2023-05-04T21:16:21.294Z,99370.50
2023-05-04T21:18:51.688Z,99362.59
2023-05-04T21:21:22.893Z,99361.78
2023-05-04T21:23:53.320Z,99373.94
2023-05-04T21:26:23.566Z,99367.84
2023-05-04T21:28:54.831Z,99371.47
2023-05-04T21:31:25.007Z,99361.91
2023-05-04T21:33:55.389Z,99376.72
2023-05-04T21:36:25.812Z,99371.47
2023-05-04T21:38:56.887Z,99366.22
2023-05-04T21:41:27.481Z,99368.03
2023-05-04T21:43:57.886Z,99370.66
2023-05-04T21:46:28.277Z,99363.72
2023-05-04T21:48:58.746Z,99362.06
2023-05-04T21:51:29.912Z,99356.81
2023-05-04T21:54:00.338Z,99364.69
2023-05-04T21:56:30.813Z,99362.06
2023-05-04T21:59:01.910Z,99365.50
2023-05-04T22:01:32.312Z,99370.78
2023-05-04T22:04:02.967Z,99356.81
2023-05-04T22:06:33.877Z,99354.16
2023-05-04T22:09:04.288Z,99356.81
2023-05-04T22:11:34.660Z,99353.34
2023-05-04T22:14:05.088Z,99342.81
2023-05-04T22:16:35.937Z,99343.66
2023-05-04T22:19:07.140Z,99347.25
2023-05-04T22:21:39.314Z,99343.81
2023-05-04T22:24:10.599Z,99331.47
2023-05-04T22:26:42.381Z,99328.03
2023-05-04T22:29:12.881Z,99317.50
2023-05-04T22:31:43.264Z,99319.31
2023-05-04T22:34:13.852Z,99325.41
2023-05-04T22:36:44.237Z,99328.16
2023-05-04T22:39:14.996Z,99321.13
2023-05-04T22:41:45.386Z,99319.31
2023-05-04T22:44:15.751Z,99313.22
2023-05-04T22:46:46.884Z,99310.59
2023-05-04T22:49:19.706Z,99318.50
2023-05-04T22:51:50.073Z,99307.13
2023-05-04T22:54:20.487Z,99308.78
2023-05-04T22:56:50.971Z,99287.06
2023-05-04T22:59:21.321Z,99289.69
2023-05-04T23:01:51.811Z,99292.31
2023-05-04T23:04:23.008Z,99297.44
2023-05-04T23:06:54.468Z,99287.06
2023-05-04T23:09:25.035Z,99296.75
2023-05-04T23:11:55.685Z,99281.81
2023-05-04T23:14:26.948Z,99288.72
2023-05-04T23:16:57.308Z,99280.16
2023-05-04T23:19:27.673Z,99285.41
2023-05-04T23:21:59.513Z,99273.25
2023-05-04T23:24:29.887Z,99273.09
2023-05-04T23:27:00.687Z,99274.91
2023-05-04T23:29:31.045Z,99283.59
2023-05-04T23:32:01.974Z,99277.53
2023-05-04T23:34:32.593Z,99275.88
2023-05-04T23:37:03.942Z,99282.78
2023-05-04T23:39:34.309Z,99273.25
2023-05-04T23:42:04.694Z,99278.50
2023-05-04T23:44:35.320Z,99280.31
2023-05-04T23:47:05.951Z,99277.69
2023-05-04T23:49:36.560Z,99280.31
2023-05-04T23:52:07.946Z,99269.78
2023-05-04T23:54:38.429Z,99282.78
2023-05-04T23:57:11.904Z,99272.44
2023-05-04T23:59:43.502Z,99267.16
